createdAt,value
2023-01-27T00:03:13.906Z,100.00
2023-01-27T00:08:18.627Z,100.00
2023-01-27T00:13:28.134Z,100.00
2023-01-27T00:18:31.660Z,100.00
2023-01-27T00:23:54.050Z,100.00
2023-01-27T00:28:57.529Z,100.00
2023-01-27T00:34:09.718Z,100.00
2023-01-27T00:39:13.775Z,100.00
2023-01-27T00:44:17.491Z,100.00
2023-01-27T00:49:21.007Z,100.00
2023-01-27T00:54:24.522Z,100.00
2023-01-27T00:59:28.140Z,100.00
2023-01-27T01:04:31.655Z,100.00
2023-01-27T01:09:35.284Z,100.00
2023-01-27T01:14:38.890Z,100.00
2023-01-27T01:19:42.511Z,100.00
2023-01-27T01:24:46.024Z,100.00
2023-01-27T01:29:49.642Z,100.00
2023-01-27T01:34:53.157Z,100.00
2023-01-27T01:39:56.775Z,100.00
2023-01-27T01:45:31.628Z,100.00
2023-01-27T01:50:36.783Z,100.00
2023-01-27T01:55:42.021Z,100.00
2023-01-27T02:00:45.755Z,100.00
2023-01-27T02:05:49.785Z,100.00
2023-01-27T02:10:54.834Z,100.00
2023-01-27T02:15:58.655Z,100.00
2023-01-27T02:21:03.038Z,100.00
2023-01-27T02:26:10.811Z,100.00
2023-01-27T02:31:14.421Z,100.00
2023-01-27T02:36:19.374Z,100.00
2023-01-27T02:41:35.094Z,100.00
2023-01-27T02:46:38.591Z,100.00
2023-01-27T02:51:42.423Z,100.00
2023-01-27T02:56:45.932Z,100.00
2023-01-27T03:01:49.483Z,100.00
2023-01-27T03:06:53.164Z,100.00
2023-01-27T03:12:15.317Z,100.00
2023-01-27T03:17:37.572Z,100.00
2023-01-27T03:22:41.294Z,100.00
2023-01-27T03:27:45.215Z,100.00
2023-01-27T03:32:48.735Z,100.00
2023-01-27T03:38:10.781Z,100.00
2023-01-27T03:43:33.760Z,100.00
2023-01-27T03:48:37.573Z,100.00
2023-01-27T03:53:41.003Z,100.00
2023-01-27T03:58:44.818Z,100.00
2023-01-27T04:04:07.895Z,100.00
2023-01-27T04:09:13.516Z,100.00
2023-01-27T04:14:17.382Z,100.00
2023-01-27T04:19:21.402Z,100.00
2023-01-27T04:24:25.440Z,100.00
2023-01-27T04:29:32.428Z,100.00
2023-01-27T04:34:36.939Z,100.00
2023-01-27T04:39:42.125Z,100.00
2023-01-27T04:44:45.537Z,100.00
2023-01-27T04:49:49.152Z,100.00
2023-01-27T04:54:52.879Z,100.00
2023-01-27T04:59:56.282Z,100.00
2023-01-27T05:04:59.795Z,100.00
2023-01-27T05:10:03.236Z,100.00
2023-01-27T05:15:07.651Z,100.00
2023-01-27T05:20:11.366Z,100.00
2023-01-27T05:25:15.305Z,100.00
2023-01-27T05:30:19.734Z,100.00
2023-01-27T05:35:23.245Z,100.00
2023-01-27T05:40:27.417Z,100.00
2023-01-27T05:45:30.995Z,100.00
2023-01-27T05:50:34.507Z,100.00
2023-01-27T05:55:38.024Z,100.00
2023-01-27T06:00:41.435Z,100.00
2023-01-27T06:05:51.814Z,100.00
2023-01-27T06:10:55.227Z,100.00
2023-01-27T06:15:58.844Z,100.00
2023-01-27T06:21:04.877Z,100.00
2023-01-27T06:26:14.615Z,100.00
2023-01-27T06:31:22.667Z,100.00
2023-01-27T06:36:26.420Z,100.00
2023-01-27T06:41:29.942Z,100.00
2023-01-27T06:46:34.548Z,100.00
2023-01-27T06:51:38.098Z,100.00
2023-01-27T06:56:41.613Z,100.00
2023-01-27T07:01:45.170Z,100.00
2023-01-27T07:06:48.844Z,100.00
2023-01-27T07:11:53.591Z,100.00
2023-01-27T07:16:57.309Z,100.00
2023-01-27T07:22:01.437Z,100.00
2023-01-27T07:27:04.852Z,100.00
2023-01-27T07:32:08.371Z,100.00
2023-01-27T07:37:11.987Z,100.00
2023-01-27T07:42:15.608Z,99.99
2023-01-27T07:47:19.124Z,99.99
2023-01-27T07:52:22.739Z,100.00
2023-01-27T07:57:26.462Z,100.00
2023-01-27T08:02:31.919Z,99.98
2023-01-27T08:07:35.330Z,100.00
2023-01-27T08:12:38.950Z,99.87
2023-01-27T08:17:42.773Z,99.91
2023-01-27T08:22:46.597Z,99.89
2023-01-27T08:27:55.406Z,99.90
2023-01-27T08:32:58.953Z,99.99
2023-01-27T08:38:02.566Z,100.00
2023-01-27T08:43:06.087Z,100.00
2023-01-27T08:48:12.142Z,100.00
2023-01-27T08:53:16.289Z,100.00
2023-01-27T08:58:19.910Z,100.00
2023-01-27T09:03:23.526Z,99.93
2023-01-27T09:08:27.243Z,100.00
2023-01-27T09:13:30.864Z,100.00
2023-01-27T09:18:35.467Z,100.00
2023-01-27T09:23:39.016Z,99.96
2023-01-27T09:28:42.536Z,100.00
2023-01-27T09:33:46.050Z,100.00
2023-01-27T09:39:00.812Z,100.00
2023-01-27T09:44:12.944Z,100.00
2023-01-27T09:49:25.591Z,100.00
2023-01-27T09:54:32.064Z,100.00
2023-01-27T10:00:17.251Z,100.00
2023-01-27T10:05:26.603Z,100.00
2023-01-27T10:11:07.397Z,100.00
2023-01-27T10:16:32.654Z,100.00
2023-01-27T10:21:45.259Z,100.00
2023-01-27T10:26:59.823Z,100.00
2023-01-27T10:32:12.346Z,100.00
2023-01-27T10:37:24.586Z,100.00
2023-01-27T10:42:59.532Z,100.00
2023-01-27T10:48:16.662Z,99.69
2023-01-27T10:53:26.315Z,99.86
2023-01-27T10:58:42.634Z,99.33
2023-01-27T11:03:59.229Z,99.90
2023-01-27T11:09:12.290Z,100.00
2023-01-27T11:14:30.456Z,100.00
2023-01-27T11:19:52.399Z,100.00
2023-01-27T11:25:17.797Z,100.00
2023-01-27T11:31:00.290Z,99.38
2023-01-27T11:36:04.085Z,98.68
2023-01-27T11:41:08.009Z,99.43
2023-01-27T11:46:18.287Z,99.27
2023-01-27T11:51:32.755Z,98.04
2023-01-27T11:56:38.214Z,99.05
2023-01-27T12:02:03.027Z,98.51
2023-01-27T12:07:11.049Z,98.12
2023-01-27T12:12:14.460Z,97.81
2023-01-27T12:17:43.681Z,98.04
2023-01-27T12:22:50.146Z,97.90
2023-01-27T12:27:57.579Z,98.14
2023-01-27T12:33:12.266Z,98.33
2023-01-27T12:38:15.452Z,98.02
2023-01-27T12:43:20.525Z,97.62
2023-01-27T12:48:24.035Z,97.58
2023-01-27T12:53:28.294Z,96.78
2023-01-27T12:58:43.548Z,97.15
2023-01-27T13:03:52.422Z,97.52
2023-01-27T13:08:55.899Z,97.28
2023-01-27T13:13:59.729Z,97.13
2023-01-27T13:19:03.342Z,97.34
2023-01-27T13:24:19.800Z,97.50
2023-01-27T13:29:29.112Z,97.56
2023-01-27T13:34:46.349Z,97.79
2023-01-27T13:40:11.860Z,98.04
2023-01-27T13:46:09.378Z,97.87
2023-01-27T13:51:19.538Z,97.59
2023-01-27T13:56:37.891Z,97.57
2023-01-27T14:02:27.183Z,97.44
2023-01-27T14:07:45.139Z,97.35
2023-01-27T14:12:57.561Z,97.22
2023-01-27T14:18:14.192Z,97.22
2023-01-27T14:23:45.962Z,97.27
2023-01-27T14:29:07.807Z,97.29
2023-01-27T14:34:36.621Z,97.45
2023-01-27T14:40:09.415Z,97.55
2023-01-27T14:45:45.313Z,97.88
2023-01-27T14:51:19.664Z,97.52
2023-01-27T14:57:02.873Z,97.31
2023-01-27T15:02:07.440Z,97.00
2023-01-27T15:07:30.898Z,97.20
2023-01-27T15:13:12.099Z,97.28
2023-01-27T15:18:24.522Z,97.29
2023-01-27T15:23:52.260Z,97.12
2023-01-27T15:28:57.979Z,96.95
2023-01-27T15:34:04.460Z,96.47
2023-01-27T15:39:11.047Z,95.46
2023-01-27T15:44:34.065Z,96.09
2023-01-27T15:49:43.602Z,95.59
2023-01-27T15:54:50.961Z,95.56
2023-01-27T15:59:59.509Z,95.83
2023-01-27T16:05:21.257Z,95.66
2023-01-27T16:10:28.252Z,95.76
2023-01-27T16:15:34.126Z,95.89
2023-01-27T16:21:02.829Z,95.27
2023-01-27T16:26:31.339Z,95.41
2023-01-27T16:31:37.165Z,95.24
2023-01-27T16:36:40.922Z,95.37
2023-01-27T16:41:57.663Z,95.83
2023-01-27T16:47:16.439Z,94.96
2023-01-27T16:52:40.821Z,94.44
2023-01-27T16:57:46.184Z,94.42
2023-01-27T17:02:52.854Z,94.68
2023-01-27T17:08:39.808Z,94.71
2023-01-27T17:13:53.241Z,94.07
2023-01-27T17:19:26.060Z,93.93
2023-01-27T17:24:29.727Z,92.97
2023-01-27T17:29:40.242Z,93.46
2023-01-27T17:34:43.983Z,93.35
2023-01-27T17:39:55.541Z,93.53
2023-01-27T17:45:23.182Z,93.39
2023-01-27T17:50:33.512Z,93.20
2023-01-27T17:55:37.571Z,93.01
2023-01-27T18:00:44.265Z,93.92
2023-01-27T18:05:51.261Z,93.44
2023-01-27T18:11:19.256Z,93.15
2023-01-27T18:16:24.539Z,93.35
2023-01-27T18:21:28.223Z,93.25
2023-01-27T18:26:39.734Z,93.44
2023-01-27T18:31:58.240Z,92.40
2023-01-27T18:37:23.260Z,91.55
2023-01-27T18:42:30.110Z,92.09
2023-01-27T18:47:35.860Z,92.04
2023-01-27T18:52:40.717Z,91.75
2023-01-27T18:57:45.258Z,91.93
2023-01-27T19:02:51.762Z,92.36
2023-01-27T19:07:55.566Z,91.98
2023-01-27T19:13:01.615Z,92.14
2023-01-27T19:18:15.401Z,91.72
2023-01-27T19:23:20.608Z,92.21
2023-01-27T19:28:56.052Z,92.14
2023-01-27T19:34:01.323Z,92.15
2023-01-27T19:39:07.736Z,92.01
2023-01-27T19:44:11.684Z,91.98
2023-01-27T19:49:18.633Z,91.61
2023-01-27T19:54:24.108Z,91.89
2023-01-27T19:59:28.822Z,91.98
2023-01-27T20:04:34.993Z,91.86
2023-01-27T20:09:39.193Z,91.21
2023-01-27T20:14:42.815Z,91.14
2023-01-27T20:19:48.066Z,91.86
2023-01-27T20:24:51.683Z,91.79
2023-01-27T20:29:55.099Z,91.99
2023-01-27T20:35:01.693Z,92.40
2023-01-27T20:40:06.882Z,92.16
2023-01-27T20:45:10.803Z,92.44
2023-01-27T20:50:14.281Z,92.68
2023-01-27T20:55:22.656Z,92.36
2023-01-27T21:00:27.285Z,92.46
2023-01-27T21:05:31.685Z,92.49
2023-01-27T21:10:35.450Z,92.50
2023-01-27T21:15:39.127Z,92.23
2023-01-27T21:20:48.867Z,92.38
2023-01-27T21:25:52.404Z,92.37
2023-01-27T21:30:55.946Z,92.43
2023-01-27T21:35:59.336Z,92.58
2023-01-27T21:41:10.743Z,92.49
2023-01-27T21:46:14.374Z,92.53
2023-01-27T21:51:17.865Z,92.56
2023-01-27T21:56:21.588Z,92.57
2023-01-27T22:01:27.157Z,92.67
2023-01-27T22:06:30.978Z,92.34
2023-01-27T22:11:34.388Z,92.87
2023-01-27T22:16:37.944Z,92.29
2023-01-27T22:21:41.623Z,92.31
2023-01-27T22:26:45.135Z,92.65
2023-01-27T22:31:48.860Z,92.33
2023-01-27T22:36:52.578Z,92.93
2023-01-27T22:41:56.295Z,92.74
2023-01-27T22:46:59.812Z,92.82
2023-01-27T22:52:03.537Z,92.91
2023-01-27T22:57:07.047Z,92.77
2023-01-27T23:02:10.841Z,92.94
2023-01-27T23:07:14.695Z,92.58
2023-01-27T23:12:18.619Z,92.83
2023-01-27T23:17:21.929Z,92.96
2023-01-27T23:22:25.575Z,92.76
2023-01-27T23:27:29.271Z,92.57
2023-01-27T23:32:32.892Z,93.08
2023-01-27T23:37:36.613Z,93.05
2023-01-27T23:42:40.429Z,92.97
2023-01-27T23:47:43.845Z,92.65
2023-01-27T23:52:47.774Z,92.83
2023-01-27T23:57:51.387Z,93.07
